sensor_id;sensor_type;location;lat;lon;timestamp;P1;durP1;ratioP1;P2;durP2;ratioP2
18267;SDS011;9260;49.998;19.880;2023-04-15T00:09:44;199.20;;;82.63;;
18267;SDS011;9260;49.998;19.880;2023-04-15T00:19:48;202.67;;;86.13;;
18267;SDS011;9260;49.998;19.880;2023-04-15T00:29:53;198.17;;;85.17;;
18267;SDS011;9260;49.998;19.880;2023-04-15T00:39:56;199.43;;;84.57;;
18267;SDS011;9260;49.998;19.880;2023-04-15T00:50:01;199.93;;;84.50;;
18267;SDS011;9260;49.998;19.880;2023-04-15T01:00:06;205.53;;;85.07;;
18267;SDS011;9260;49.998;19.880;2023-04-15T01:10:14;197.63;;;82.83;;
18267;SDS011;9260;49.998;19.880;2023-04-15T01:20:17;204.80;;;84.43;;
18267;SDS011;9260;49.998;19.880;2023-04-15T01:30:22;195.13;;;80.77;;
18267;SDS011;9260;49.998;19.880;2023-04-15T01:40:27;202.90;;;81.93;;
18267;SDS011;9260;49.998;19.880;2023-04-15T01:50:33;195.40;;;79.30;;
18267;SDS011;9260;49.998;19.880;2023-04-15T02:00:38;196.60;;;83.83;;
18267;SDS011;9260;49.998;19.880;2023-04-15T02:10:43;197.53;;;81.93;;
18267;SDS011;9260;49.998;19.880;2023-04-15T02:20:47;204.70;;;84.67;;
18267;SDS011;9260;49.998;19.880;2023-04-15T02:30:51;208.07;;;84.40;;
18267;SDS011;9260;49.998;19.880;2023-04-15T02:40:57;215.53;;;84.77;;
18267;SDS011;9260;49.998;19.880;2023-04-15T02:51:13;206.83;;;83.30;;
18267;SDS011;9260;49.998;19.880;2023-04-15T03:01:20;205.77;;;81.50;;
18267;SDS011;9260;49.998;19.880;2023-04-15T03:11:25;195.17;;;79.90;;
18267;SDS011;9260;49.998;19.880;2023-04-15T03:21:29;197.57;;;79.73;;
18267;SDS011;9260;49.998;19.880;2023-04-15T03:31:35;199.17;;;82.80;;
18267;SDS011;9260;49.998;19.880;2023-04-15T03:41:38;194.87;;;80.03;;
18267;SDS011;9260;49.998;19.880;2023-04-15T03:51:43;203.10;;;81.53;;
18267;SDS011;9260;49.998;19.880;2023-04-15T04:01:47;197.57;;;80.80;;
18267;SDS011;9260;49.998;19.880;2023-04-15T04:11:52;194.37;;;80.13;;
18267;SDS011;9260;49.998;19.880;2023-04-15T04:21:56;200.43;;;84.07;;
18267;SDS011;9260;49.998;19.880;2023-04-15T04:32:01;196.70;;;80.87;;
18267;SDS011;9260;49.998;19.880;2023-04-15T04:42:04;201.40;;;84.43;;
18267;SDS011;9260;49.998;19.880;2023-04-15T04:52:09;201.50;;;82.73;;
18267;SDS011;9260;49.998;19.880;2023-04-15T05:02:13;194.47;;;81.00;;
18267;SDS011;9260;49.998;19.880;2023-04-15T05:12:18;200.40;;;82.03;;
18267;SDS011;9260;49.998;19.880;2023-04-15T05:22:21;198.07;;;81.70;;
18267;SDS011;9260;49.998;19.880;2023-04-15T05:32:27;199.63;;;84.10;;
18267;SDS011;9260;49.998;19.880;2023-04-15T05:42:30;206.87;;;87.47;;
18267;SDS011;9260;49.998;19.880;2023-04-15T05:52:35;203.23;;;90.17;;
18267;SDS011;9260;49.998;19.880;2023-04-15T06:02:39;200.90;;;85.73;;
18267;SDS011;9260;49.998;19.880;2023-04-15T06:12:44;206.87;;;88.23;;
18267;SDS011;9260;49.998;19.880;2023-04-15T06:22:48;203.57;;;86.17;;
18267;SDS011;9260;49.998;19.880;2023-04-15T06:32:53;211.07;;;89.33;;
18267;SDS011;9260;49.998;19.880;2023-04-15T06:42:57;212.07;;;94.87;;
18267;SDS011;9260;49.998;19.880;2023-04-15T06:53:02;209.90;;;94.43;;
18267;SDS011;9260;49.998;19.880;2023-04-15T07:03:06;214.67;;;94.80;;
18267;SDS011;9260;49.998;19.880;2023-04-15T07:13:13;215.47;;;101.53;;
18267;SDS011;9260;49.998;19.880;2023-04-15T07:23:17;204.77;;;93.80;;
18267;SDS011;9260;49.998;19.880;2023-04-15T07:33:22;213.37;;;99.33;;
18267;SDS011;9260;49.998;19.880;2023-04-15T07:43:26;217.00;;;95.97;;
18267;SDS011;9260;49.998;19.880;2023-04-15T07:53:31;218.67;;;98.03;;
18267;SDS011;9260;49.998;19.880;2023-04-15T08:03:34;206.57;;;95.37;;
18267;SDS011;9260;49.998;19.880;2023-04-15T08:13:40;208.03;;;94.53;;
18267;SDS011;9260;49.998;19.880;2023-04-15T08:23:44;212.97;;;99.27;;
18267;SDS011;9260;49.998;19.880;2023-04-15T08:33:51;211.43;;;100.33;;
18267;SDS011;9260;49.998;19.880;2023-04-15T08:43:56;205.10;;;102.50;;
18267;SDS011;9260;49.998;19.880;2023-04-15T08:54:05;203.87;;;103.90;;
18267;SDS011;9260;49.998;19.880;2023-04-15T09:04:10;202.93;;;102.00;;
18267;SDS011;9260;49.998;19.880;2023-04-15T09:14:15;222.20;;;114.97;;
18267;SDS011;9260;49.998;19.880;2023-04-15T09:24:18;217.52;;;121.28;;
18267;SDS011;9260;49.998;19.880;2023-04-15T09:34:23;210.90;;;118.50;;
18267;SDS011;9260;49.998;19.880;2023-04-15T09:44:37;218.77;;;129.93;;
18267;SDS011;9260;49.998;19.880;2023-04-15T09:54:43;213.10;;;132.45;;
18267;SDS011;9260;49.998;19.880;2023-04-15T10:04:47;209.23;;;128.55;;
18267;SDS011;9260;49.998;19.880;2023-04-15T10:14:57;206.90;;;140.88;;
18267;SDS011;9260;49.998;19.880;2023-04-15T10:25:05;195.63;;;139.40;;
18267;SDS011;9260;49.998;19.880;2023-04-15T10:35:11;194.38;;;137.23;;
18267;SDS011;9260;49.998;19.880;2023-04-15T10:45:15;198.63;;;134.98;;
18267;SDS011;9260;49.998;19.880;2023-04-15T10:55:22;204.88;;;126.85;;
18267;SDS011;9260;49.998;19.880;2023-04-15T11:15:57;215.20;;;113.47;;
18267;SDS011;9260;49.998;19.880;2023-04-15T11:26:03;218.17;;;110.47;;
18267;SDS011;9260;49.998;19.880;2023-04-15T11:36:11;207.90;;;105.47;;
18267;SDS011;9260;49.998;19.880;2023-04-15T11:46:15;208.70;;;108.90;;
18267;SDS011;9260;49.998;19.880;2023-04-15T11:56:21;215.30;;;113.70;;
18267;SDS011;9260;49.998;19.880;2023-04-15T12:06:30;205.27;;;107.00;;
18267;SDS011;9260;49.998;19.880;2023-04-15T12:16:40;215.93;;;107.27;;
18267;SDS011;9260;49.998;19.880;2023-04-15T12:26:50;210.50;;;106.93;;
18267;SDS011;9260;49.998;19.880;2023-04-15T12:36:57;207.53;;;100.50;;
18267;SDS011;9260;49.998;19.880;2023-04-15T12:47:02;210.60;;;99.93;;
18267;SDS011;9260;49.998;19.880;2023-04-15T12:57:07;207.23;;;101.07;;
18267;SDS011;9260;49.998;19.880;2023-04-15T13:07:11;214.03;;;106.23;;
18267;SDS011;9260;49.998;19.880;2023-04-15T13:17:17;209.17;;;103.53;;
18267;SDS011;9260;49.998;19.880;2023-04-15T13:27:22;208.07;;;101.83;;
18267;SDS011;9260;49.998;19.880;2023-04-15T13:37:27;209.70;;;102.30;;
18267;SDS011;9260;49.998;19.880;2023-04-15T13:47:32;211.07;;;101.13;;
18267;SDS011;9260;49.998;19.880;2023-04-15T13:57:37;219.40;;;106.70;;
18267;SDS011;9260;49.998;19.880;2023-04-15T14:07:40;226.13;;;125.87;;
18267;SDS011;9260;49.998;19.880;2023-04-15T14:17:45;227.10;;;109.27;;
18267;SDS011;9260;49.998;19.880;2023-04-15T14:27:49;211.23;;;105.60;;
18267;SDS011;9260;49.998;19.880;2023-04-15T14:37:54;216.17;;;103.93;;
18267;SDS011;9260;49.998;19.880;2023-04-15T14:47:58;209.40;;;100.07;;
18267;SDS011;9260;49.998;19.880;2023-04-15T14:58:03;213.07;;;103.80;;
18267;SDS011;9260;49.998;19.880;2023-04-15T15:08:08;214.77;;;106.17;;
18267;SDS011;9260;49.998;19.880;2023-04-15T15:18:17;219.43;;;106.17;;
18267;SDS011;9260;49.998;19.880;2023-04-15T15:28:22;218.37;;;105.37;;
18267;SDS011;9260;49.998;19.880;2023-04-15T15:38:27;218.70;;;103.57;;
18267;SDS011;9260;49.998;19.880;2023-04-15T15:48:31;214.03;;;96.67;;
18267;SDS011;9260;49.998;19.880;2023-04-15T15:58:36;216.63;;;99.70;;
18267;SDS011;9260;49.998;19.880;2023-04-15T16:08:40;219.73;;;99.80;;
18267;SDS011;9260;49.998;19.880;2023-04-15T16:18:44;219.43;;;96.43;;
18267;SDS011;9260;49.998;19.880;2023-04-15T16:28:48;224.90;;;98.33;;
18267;SDS011;9260;49.998;19.880;2023-04-15T16:38:53;211.50;;;90.30;;
18267;SDS011;9260;49.998;19.880;2023-04-15T16:48:56;214.03;;;98.57;;
18267;SDS011;9260;49.998;19.880;2023-04-15T16:59:01;204.50;;;89.03;;
18267;SDS011;9260;49.998;19.880;2023-04-15T17:09:05;209.43;;;94.17;;
18267;SDS011;9260;49.998;19.880;2023-04-15T17:19:10;208.50;;;88.20;;
18267;SDS011;9260;49.998;19.880;2023-04-15T17:29:13;206.53;;;88.23;;
18267;SDS011;9260;49.998;19.880;2023-04-15T17:39:18;206.97;;;87.00;;
18267;SDS011;9260;49.998;19.880;2023-04-15T17:49:21;213.50;;;86.27;;
18267;SDS011;9260;49.998;19.880;2023-04-15T17:59:26;207.93;;;86.30;;
18267;SDS011;9260;49.998;19.880;2023-04-15T18:09:30;206.17;;;83.47;;
18267;SDS011;9260;49.998;19.880;2023-04-15T18:19:35;208.43;;;86.63;;
18267;SDS011;9260;49.998;19.880;2023-04-15T18:29:38;218.67;;;89.73;;
18267;SDS011;9260;49.998;19.880;2023-04-15T18:39:44;210.03;;;92.80;;
18267;SDS011;9260;49.998;19.880;2023-04-15T18:49:48;213.90;;;87.50;;
18267;SDS011;9260;49.998;19.880;2023-04-15T18:59:52;216.40;;;86.27;;
18267;SDS011;9260;49.998;19.880;2023-04-15T19:09:56;214.27;;;89.57;;
18267;SDS011;9260;49.998;19.880;2023-04-15T19:20:01;217.43;;;95.10;;
18267;SDS011;9260;49.998;19.880;2023-04-15T19:30:08;213.83;;;90.37;;
18267;SDS011;9260;49.998;19.880;2023-04-15T19:40:13;214.83;;;95.20;;
18267;SDS011;9260;49.998;19.880;2023-04-15T19:50:18;215.83;;;90.17;;
18267;SDS011;9260;49.998;19.880;2023-04-15T20:00:27;214.67;;;94.50;;
18267;SDS011;9260;49.998;19.880;2023-04-15T20:10:32;228.70;;;102.10;;
18267;SDS011;9260;49.998;19.880;2023-04-15T20:20:37;241.33;;;106.50;;
18267;SDS011;9260;49.998;19.880;2023-04-15T20:30:41;241.80;;;103.07;;
18267;SDS011;9260;49.998;19.880;2023-04-15T20:40:46;235.57;;;103.73;;
18267;SDS011;9260;49.998;19.880;2023-04-15T20:50:50;227.33;;;99.43;;
18267;SDS011;9260;49.998;19.880;2023-04-15T21:00:55;232.60;;;98.60;;
18267;SDS011;9260;49.998;19.880;2023-04-15T21:10:59;229.40;;;101.53;;
18267;SDS011;9260;49.998;19.880;2023-04-15T21:21:04;230.10;;;101.17;;
18267;SDS011;9260;49.998;19.880;2023-04-15T21:31:07;226.20;;;99.63;;
18267;SDS011;9260;49.998;19.880;2023-04-15T21:41:12;227.90;;;102.10;;
18267;SDS011;9260;49.998;19.880;2023-04-15T21:51:16;236.17;;;102.73;;
18267;SDS011;9260;49.998;19.880;2023-04-15T22:01:21;230.50;;;98.13;;
18267;SDS011;9260;49.998;19.880;2023-04-15T22:11:24;231.57;;;102.90;;
18267;SDS011;9260;49.998;19.880;2023-04-15T22:21:30;222.07;;;97.33;;
18267;SDS011;9260;49.998;19.880;2023-04-15T22:31:33;228.37;;;100.97;;
18267;SDS011;9260;49.998;19.880;2023-04-15T22:41:38;230.87;;;102.50;;
18267;SDS011;9260;49.998;19.880;2023-04-15T22:51:42;239.67;;;107.00;;
18267;SDS011;9260;49.998;19.880;2023-04-15T23:01:47;237.27;;;103.17;;
18267;SDS011;9260;49.998;19.880;2023-04-15T23:11:51;235.10;;;102.77;;
18267;SDS011;9260;49.998;19.880;2023-04-15T23:21:56;230.03;;;103.63;;
18267;SDS011;9260;49.998;19.880;2023-04-15T23:31:59;236.90;;;105.23;;
18267;SDS011;9260;49.998;19.880;2023-04-15T23:42:04;235.83;;;106.63;;
18267;SDS011;9260;49.998;19.880;2023-04-15T23:52:08;244.60;;;105.77;;
